Time,TemperatureF,DewpointF,PressureIn,WindDirection,WindDirectionDegrees,WindSpeedMPH,WindSpeedGustMPH,Humidity,HourlyPrecipIn,Conditions,Clouds,dailyrainin,SoftwareType,DateUTC
2013-01-07 00:02:00,74.0,-99.9,30.05,ENE,77,10.0,25.0,-999,-99.99,,,-99.99,,2013-01-07 10:02:00,
2013-01-07 00:12:00,74.0,-99.9,30.05,ENE,67,9.0,23.0,-999,-99.99,,,-99.99,,2013-01-07 10:12:00,
2013-01-07 00:22:00,74.0,-99.9,30.05,ENE,61,9.0,25.0,-999,-99.99,,,-99.99,,2013-01-07 10:22:00,
2013-01-07 00:33:00,73.0,-99.9,30.05,ENE,60,13.0,24.0,-999,-99.99,,,-99.99,,2013-01-07 10:33:00,
2013-01-07 00:43:00,74.0,-99.9,30.05,East,92,9.0,23.0,-999,-99.99,,,-99.99,,2013-01-07 10:43:00,
2013-01-07 00:53:00,74.0,-99.9,30.04,ESE,106,8.0,16.0,-999,-99.99,,,-99.99,,2013-01-07 10:53:00,
2013-01-07 01:02:00,73.0,-99.9,30.04,East,81,4.0,13.0,-999,-99.99,,,-99.99,,2013-01-07 11:02:00,
2013-01-07 01:12:00,73.0,-99.9,30.05,ENE,64,9.0,18.0,-999,-99.99,,,-99.99,,2013-01-07 11:12:00,
2013-01-07 01:23:00,74.0,-99.9,30.04,NE,55,7.0,18.0,-999,-99.99,,,-99.99,,2013-01-07 11:23:00,
2013-01-07 01:33:00,74.0,-99.9,30.04,East,80,9.0,16.0,-999,-99.99,,,-99.99,,2013-01-07 11:33:00,
2013-01-07 01:43:00,74.0,-99.9,30.04,ENE,58,11.0,20.0,-999,-99.99,,,-99.99,,2013-01-07 11:43:00,
2013-01-07 01:53:00,74.0,-99.9,30.04,ENE,57,12.0,21.0,-999,-99.99,,,-99.99,,2013-01-07 11:53:00,
2013-01-07 02:03:00,73.0,-99.9,30.04,ENE,70,11.0,19.0,-999,-99.99,,,-99.99,,2013-01-07 12:03:00,
2013-01-07 02:13:00,73.0,-99.9,30.04,ENE,66,6.0,12.0,-999,-99.99,,,-99.99,,2013-01-07 12:13:00,
2013-01-07 02:23:00,73.0,-99.9,30.04,NE,46,8.0,17.0,-999,-99.99,,,-99.99,,2013-01-07 12:23:00,
2013-01-07 02:33:00,73.0,-99.9,30.04,NE,53,6.0,13.0,-999,-99.99,,,-99.99,,2013-01-07 12:33:00,
2013-01-07 02:43:00,74.0,-99.9,30.04,NE,55,8.0,15.0,-999,-99.99,,,-99.99,,2013-01-07 12:43:00,
2013-01-07 02:53:00,74.0,-99.9,30.03,NE,54,8.0,17.0,-999,-99.99,,,-99.99,,2013-01-07 12:53:00,
2013-01-07 03:03:00,73.0,-99.9,30.03,East,81,7.0,14.0,-999,-99.99,,,-99.99,,2013-01-07 13:03:00,
2013-01-07 03:12:00,73.0,-99.9,30.03,ENE,61,8.0,12.0,-999,-99.99,,,-99.99,,2013-01-07 13:12:00,
2013-01-07 03:23:00,73.0,-99.9,30.03,East,84,5.0,14.0,-999,-99.99,,,-99.99,,2013-01-07 13:23:00,
2013-01-07 03:33:00,74.0,-99.9,30.03,ENE,75,3.0,15.0,-999,-99.99,,,-99.99,,2013-01-07 13:33:00,
2013-01-07 03:43:00,73.0,-99.9,30.03,ENE,57,10.0,17.0,-999,-99.99,,,-99.99,,2013-01-07 13:43:00,
2013-01-07 03:53:00,72.0,-99.9,30.03,NE,54,6.0,16.0,-999,-99.99,,,-99.99,,2013-01-07 13:53:00,
2013-01-07 04:03:00,73.0,-99.9,30.03,ENE,65,7.0,13.0,-999,-99.99,,,-99.99,,2013-01-07 14:03:00,
2013-01-07 04:13:00,72.0,-99.9,30.03,NE,43,5.0,10.0,-999,-99.99,,,-99.99,,2013-01-07 14:13:00,
2013-01-07 04:23:00,72.0,-99.9,30.03,NE,46,9.0,16.0,-999,-99.99,,,-99.99,,2013-01-07 14:23:00,
2013-01-07 04:33:00,72.0,-99.9,30.03,NE,53,8.0,14.0,-999,-99.99,,,-99.99,,2013-01-07 14:33:00,
2013-01-07 04:43:00,72.0,-99.9,30.04,NE,56,8.0,12.0,-999,-99.99,,,-99.99,,2013-01-07 14:43:00,
2013-01-07 04:53:00,72.0,-99.9,30.04,NE,39,7.0,13.0,-999,-99.99,,,-99.99,,2013-01-07 14:53:00,
2013-01-07 05:03:00,71.0,-99.9,30.04,ENE,73,4.0,8.0,-999,-99.99,,,-99.99,,2013-01-07 15:03:00,
2013-01-07 05:12:00,71.0,-99.9,30.04,NE,51,4.0,9.0,-999,-99.99,,,-99.99,,2013-01-07 15:12:00,
2013-01-07 05:23:00,71.0,-99.9,30.04,ENE,57,4.0,8.0,-999,-99.99,,,-99.99,,2013-01-07 15:23:00,
2013-01-07 05:33:00,71.0,-99.9,30.05,East,100,4.0,8.0,-999,-99.99,,,-99.99,,2013-01-07 15:33:00,
2013-01-07 05:43:00,71.0,-99.9,30.04,NE,37,5.0,16.0,-999,-99.99,,,-99.99,,2013-01-07 15:43:00,
2013-01-07 05:53:00,71.0,-99.9,30.04,NE,51,8.0,13.0,-999,-99.99,,,-99.99,,2013-01-07 15:53:00,
2013-01-07 06:03:00,71.0,-99.9,30.04,NE,48,4.0,9.0,-999,-99.99,,,-99.99,,2013-01-07 16:03:00,
2013-01-07 06:12:00,71.0,-99.9,30.04,East,96,4.0,9.0,-999,-99.99,,,-99.99,,2013-01-07 16:12:00,
2013-01-07 06:23:00,72.0,-99.9,30.04,ENE,78,5.0,11.0,-999,-99.99,,,-99.99,,2013-01-07 16:23:00,
2013-01-07 06:33:00,73.0,-99.9,30.04,NE,54,8.0,16.0,-999,-99.99,,,-99.99,,2013-01-07 16:33:00,
2013-01-07 06:43:00,73.0,-99.9,30.04,ENE,68,4.0,16.0,-999,-99.99,,,-99.99,,2013-01-07 16:43:00,
2013-01-07 06:53:00,73.0,-99.9,30.05,East,81,4.0,11.0,-999,-99.99,,,-99.99,,2013-01-07 16:53:00,
2013-01-07 07:03:00,73.0,-99.9,30.06,NE,56,6.0,15.0,-999,-99.99,,,-99.99,,2013-01-07 17:03:00,
2013-01-07 07:12:00,73.0,-99.9,30.06,East,82,3.0,12.0,-999,-99.99,,,-99.99,,2013-01-07 17:12:00,
2013-01-07 07:23:00,73.0,-99.9,30.06,East,94,4.0,11.0,-999,-99.99,,,-99.99,,2013-01-07 17:23:00,
2013-01-07 07:33:00,73.0,-99.9,30.07,ENE,76,7.0,12.0,-999,-99.99,,,-99.99,,2013-01-07 17:33:00,
2013-01-07 07:43:00,73.0,-99.9,30.07,ENE,60,4.0,13.0,-999,-99.99,,,-99.99,,2013-01-07 17:43:00,
2013-01-07 07:53:00,73.0,-99.9,30.07,ENE,72,8.0,15.0,-999,-99.99,,,-99.99,,2013-01-07 17:53:00,
2013-01-07 08:03:00,73.0,-99.9,30.08,NE,49,8.0,18.0,-999,-99.99,,,-99.99,,2013-01-07 18:03:00,
2013-01-07 08:13:00,73.0,-99.9,30.07,East,99,7.0,19.0,-999,-99.99,,,-99.99,,2013-01-07 18:13:00,
2013-01-07 08:24:00,73.0,-99.9,30.07,East,89,3.0,17.0,-999,-99.99,,,-99.99,,2013-01-07 18:24:00,
2013-01-07 08:33:00,74.0,-99.9,30.08,ENE,62,6.0,17.0,-999,-99.99,,,-99.99,,2013-01-07 18:33:00,
2013-01-07 08:43:00,74.0,-99.9,30.08,ENE,73,7.0,16.0,-999,-99.99,,,-99.99,,2013-01-07 18:43:00,
2013-01-07 08:53:00,74.0,-99.9,30.09,ENE,74,8.0,19.0,-999,-99.99,,,-99.99,,2013-01-07 18:53:00,
2013-01-07 09:03:00,74.0,-99.9,30.09,East,86,6.0,20.0,-999,-99.99,,,-99.99,,2013-01-07 19:03:00,
2013-01-07 09:12:00,74.0,-99.9,30.09,ESE,103,6.0,15.0,-999,-99.99,,,-99.99,,2013-01-07 19:12:00,
2013-01-07 09:23:00,75.0,-99.9,30.09,ENE,76,9.0,18.0,-999,-99.99,,,-99.99,,2013-01-07 19:23:00,
2013-01-07 09:33:00,75.0,-99.9,30.09,East,95,9.0,21.0,-999,-99.99,,,-99.99,,2013-01-07 19:33:00,
2013-01-07 09:43:00,75.0,-99.9,30.09,ENE,68,9.0,19.0,-999,-99.99,,,-99.99,,2013-01-07 19:43:00,
2013-01-07 09:53:00,75.0,-99.9,30.09,NE,56,12.0,24.0,-999,-99.99,,,-99.99,,2013-01-07 19:53:00,
2013-01-07 10:03:00,75.0,-99.9,30.09,East,97,4.0,14.0,-999,-99.99,,,-99.99,,2013-01-07 20:03:00,
2013-01-07 10:13:00,74.0,-99.9,30.10,East,89,9.0,17.0,-999,-99.99,,,-99.99,,2013-01-07 20:13:00,
2013-01-07 10:23:00,74.0,-99.9,30.10,ENE,73,6.0,14.0,-999,-99.99,,,-99.99,,2013-01-07 20:23:00,
2013-01-07 10:33:00,75.0,-99.9,30.10,ENE,76,4.0,17.0,-999,-99.99,,,-99.99,,2013-01-07 20:33:00,
2013-01-07 10:43:00,75.0,-99.9,30.10,ESE,110,4.0,11.0,-999,-99.99,,,-99.99,,2013-01-07 20:43:00,
2013-01-07 10:53:00,76.0,-99.9,30.10,East,89,7.0,14.0,-999,-99.99,,,-99.99,,2013-01-07 20:53:00,
2013-01-07 11:03:00,75.0,-99.9,30.10,ENE,61,8.0,17.0,-999,-99.99,,,-99.99,,2013-01-07 21:03:00,
2013-01-07 11:12:00,76.0,-99.9,30.10,ENE,76,5.0,14.0,-999,-99.99,,,-99.99,,2013-01-07 21:12:00,
2013-01-07 11:23:00,76.0,-99.9,30.09,ENE,63,9.0,20.0,-999,-99.99,,,-99.99,,2013-01-07 21:23:00,
2013-01-07 11:33:00,76.0,-99.9,30.09,ENE,67,10.0,16.0,-999,-99.99,,,-99.99,,2013-01-07 21:33:00,
2013-01-07 11:43:00,76.0,-99.9,30.08,East,84,7.0,17.0,-999,-99.99,,,-99.99,,2013-01-07 21:43:00,
2013-01-07 11:53:00,76.0,-99.9,30.08,NE,42,4.0,14.0,-999,-99.99,,,-99.99,,2013-01-07 21:53:00,
2013-01-07 12:03:00,77.0,-99.9,30.07,ENE,70,9.0,16.0,-999,-99.99,,,-99.99,,2013-01-07 22:03:00,
2013-01-07 12:12:00,77.0,-99.9,30.06,ENE,68,6.0,21.0,-999,-99.99,,,-99.99,,2013-01-07 22:12:00,
2013-01-07 12:23:00,76.0,-99.9,30.06,ENE,61,12.0,21.0,-999,-99.99,,,-99.99,,2013-01-07 22:23:00,
2013-01-07 12:33:00,75.0,-99.9,30.06,NE,54,7.0,15.0,-999,-99.99,,,-99.99,,2013-01-07 22:33:00,
2013-01-07 12:43:00,76.0,-99.9,30.05,ENE,71,7.0,19.0,-999,-99.99,,,-99.99,,2013-01-07 22:43:00,
2013-01-07 12:53:00,77.0,-99.9,30.04,ENE,59,7.0,16.0,-999,-99.99,,,-99.99,,2013-01-07 22:53:00,
2013-01-07 13:03:00,77.0,-99.9,30.03,ENE,78,6.0,15.0,-999,-99.99,,,-99.99,,2013-01-07 23:03:00,
2013-01-07 13:12:00,77.0,-99.9,30.03,ENE,72,9.0,25.0,-999,-99.99,,,-99.99,,2013-01-07 23:12:00,
2013-01-07 13:23:00,77.0,-99.9,30.03,ENE,57,8.0,16.0,-999,-99.99,,,-99.99,,2013-01-07 23:23:00,
2013-01-07 13:33:00,77.0,-99.9,30.02,ENE,64,11.0,19.0,-999,-99.99,,,-99.99,,2013-01-07 23:33:00,
2013-01-07 13:43:00,78.0,-99.9,30.01,NE,36,8.0,14.0,-999,-99.99,,,-99.99,,2013-01-07 23:43:00,
2013-01-07 13:53:00,78.0,-99.9,30.01,NE,46,8.0,13.0,-999,-99.99,,,-99.99,,2013-01-07 23:53:00,
2013-01-07 14:03:00,78.0,-99.9,30.00,ENE,58,8.0,19.0,-999,-99.99,,,-99.99,,2013-01-08 00:03:00,
2013-01-07 14:12:00,77.0,-99.9,30.00,ENE,71,11.0,26.0,-999,-99.99,,,-99.99,,2013-01-08 00:12:00,
2013-01-07 14:23:00,78.0,-99.9,29.99,ENE,60,10.0,16.0,-999,-99.99,,,-99.99,,2013-01-08 00:23:00,
2013-01-07 14:33:00,77.0,-99.9,29.99,NE,51,11.0,20.0,-999,-99.99,,,-99.99,,2013-01-08 00:33:00,
2013-01-07 14:43:00,77.0,-99.9,29.99,ENE,57,11.0,20.0,-999,-99.99,,,-99.99,,2013-01-08 00:43:00,
2013-01-07 14:53:00,77.0,-99.9,29.99,East,97,9.0,19.0,-999,-99.99,,,-99.99,,2013-01-08 00:53:00,
2013-01-07 15:03:00,77.0,-99.9,29.98,ENE,65,10.0,22.0,-999,-99.99,,,-99.99,,2013-01-08 01:03:00,
2013-01-07 15:12:00,77.0,-99.9,29.98,ENE,74,10.0,21.0,-999,-99.99,,,-99.99,,2013-01-08 01:12:00,
2013-01-07 15:23:00,77.0,-99.9,29.98,NE,40,11.0,17.0,-999,-99.99,,,-99.99,,2013-01-08 01:23:00,
2013-01-07 15:33:00,78.0,-99.9,29.98,ENE,59,6.0,12.0,-999,-99.99,,,-99.99,,2013-01-08 01:33:00,
2013-01-07 15:42:00,77.0,-99.9,29.98,ENE,71,10.0,20.0,-999,-99.99,,,-99.99,,2013-01-08 01:42:00,
2013-01-07 15:53:00,77.0,-99.9,29.98,ENE,67,8.0,22.0,-999,-99.99,,,-99.99,,2013-01-08 01:53:00,
2013-01-07 16:02:00,77.0,-99.9,29.98,ENE,67,8.0,15.0,-999,-99.99,,,-99.99,,2013-01-08 02:02:00,
2013-01-07 16:12:00,77.0,-99.9,29.98,NE,43,6.0,12.0,-999,-99.99,,,-99.99,,2013-01-08 02:12:00,
2013-01-07 16:22:00,77.0,-99.9,29.98,NE,51,8.0,14.0,-999,-99.99,,,-99.99,,2013-01-08 02:22:00,
2013-01-07 16:33:00,77.0,-99.9,29.98,NNE,28,7.0,14.0,-999,-99.99,,,-99.99,,2013-01-08 02:33:00,
2013-01-07 16:43:00,77.0,-99.9,29.98,ENE,58,10.0,16.0,-999,-99.99,,,-99.99,,2013-01-08 02:43:00,
2013-01-07 16:53:00,77.0,-99.9,29.98,NE,53,10.0,19.0,-999,-99.99,,,-99.99,,2013-01-08 02:53:00,
2013-01-07 17:03:00,77.0,-99.9,29.98,ESE,102,8.0,13.0,-999,-99.99,,,-99.99,,2013-01-08 03:03:00,
2013-01-07 17:12:00,77.0,-99.9,29.98,ENE,71,4.0,13.0,-999,-99.99,,,-99.99,,2013-01-08 03:12:00,
2013-01-07 17:22:00,77.0,-99.9,29.98,NE,50,6.0,17.0,-999,-99.99,,,-99.99,,2013-01-08 03:22:00,
2013-01-07 17:33:00,76.0,-99.9,29.99,ENE,70,6.0,13.0,-999,-99.99,,,-99.99,,2013-01-08 03:33:00,
2013-01-07 17:43:00,76.0,-99.9,29.99,NE,35,8.0,13.0,-999,-99.99,,,-99.99,,2013-01-08 03:43:00,
2013-01-07 17:53:00,76.0,-99.9,30.00,NE,40,8.0,14.0,-999,-99.99,,,-99.99,,2013-01-08 03:53:00,
2013-01-07 18:02:00,76.0,-99.9,30.00,NE,56,5.0,14.0,-999,-99.99,,,-99.99,,2013-01-08 04:02:00,
2013-01-07 18:12:00,76.0,-99.9,30.00,NE,53,5.0,15.0,-999,-99.99,,,-99.99,,2013-01-08 04:12:00,
2013-01-07 18:22:00,75.0,-99.9,30.00,ENE,67,6.0,12.0,-999,-99.99,,,-99.99,,2013-01-08 04:22:00,
2013-01-07 18:33:00,75.0,-99.9,30.01,ENE,68,7.0,13.0,-999,-99.99,,,-99.99,,2013-01-08 04:33:00,
2013-01-07 18:43:00,75.0,-99.9,30.01,ENE,59,6.0,10.0,-999,-99.99,,,-99.99,,2013-01-08 04:43:00,
2013-01-07 18:52:00,75.0,-99.9,30.01,East,94,4.0,19.0,-999,-99.99,,,-99.99,,2013-01-08 04:52:00,
2013-01-07 19:04:00,75.0,-99.9,30.01,NE,55,6.0,14.0,-999,-99.99,,,-99.99,,2013-01-08 05:04:00,
2013-01-07 19:12:00,75.0,-99.9,30.01,ENE,66,7.0,17.0,-999,-99.99,,,-99.99,,2013-01-08 05:12:00,
2013-01-07 19:22:00,75.0,-99.9,30.01,ENE,63,10.0,18.0,-999,-99.99,,,-99.99,,2013-01-08 05:22:00,
2013-01-07 19:33:00,74.0,-99.9,30.02,East,80,8.0,21.0,-999,-99.99,,,-99.99,,2013-01-08 05:33:00,
2013-01-07 19:43:00,74.0,-99.9,30.02,East,86,7.0,14.0,-999,-99.99,,,-99.99,,2013-01-08 05:43:00,
2013-01-07 19:53:00,74.0,-99.9,30.02,East,91,6.0,19.0,-999,-99.99,,,-99.99,,2013-01-08 05:53:00,
2013-01-07 20:03:00,74.0,-99.9,30.02,ENE,65,11.0,17.0,-999,-99.99,,,-99.99,,2013-01-08 06:03:00,
2013-01-07 20:12:00,74.0,-99.9,30.03,ENE,59,7.0,17.0,-999,-99.99,,,-99.99,,2013-01-08 06:12:00,
2013-01-07 20:22:00,74.0,-99.9,30.03,NE,55,6.0,13.0,-999,-99.99,,,-99.99,,2013-01-08 06:22:00,
2013-01-07 20:33:00,74.0,-99.9,30.03,East,82,5.0,12.0,-999,-99.99,,,-99.99,,2013-01-08 06:33:00,
2013-01-07 20:43:00,74.0,-99.9,30.03,ENE,68,4.0,18.0,-999,-99.99,,,-99.99,,2013-01-08 06:43:00,
2013-01-07 20:53:00,74.0,-99.9,30.03,ENE,76,7.0,15.0,-999,-99.99,,,-99.99,,2013-01-08 06:53:00,
2013-01-07 21:02:00,74.0,-99.9,30.03,ENE,73,4.0,16.0,-999,-99.99,,,-99.99,,2013-01-08 07:02:00,
2013-01-07 21:12:00,74.0,-99.9,30.03,NE,52,9.0,23.0,-999,-99.99,,,-99.99,,2013-01-08 07:12:00,
2013-01-07 21:22:00,74.0,-99.9,30.03,ENE,62,4.0,16.0,-999,-99.99,,,-99.99,,2013-01-08 07:22:00,
2013-01-07 21:32:00,74.0,-99.9,30.04,ENE,69,7.0,16.0,-999,-99.99,,,-99.99,,2013-01-08 07:32:00,
2013-01-07 21:42:00,74.0,-99.9,30.03,NE,52,7.0,21.0,-999,-99.99,,,-99.99,,2013-01-08 07:42:00,
2013-01-07 21:52:00,74.0,-99.9,30.04,ENE,65,13.0,21.0,-999,-99.99,,,-99.99,,2013-01-08 07:52:00,
2013-01-07 22:02:00,74.0,-99.9,30.04,East,94,9.0,15.0,-999,-99.99,,,-99.99,,2013-01-08 08:02:00,
2013-01-07 22:12:00,74.0,-99.9,30.04,NE,54,9.0,17.0,-999,-99.99,,,-99.99,,2013-01-08 08:12:00,
2013-01-07 22:22:00,74.0,-99.9,30.04,East,89,8.0,17.0,-999,-99.99,,,-99.99,,2013-01-08 08:22:00,
2013-01-07 22:32:00,74.0,-99.9,30.05,East,82,7.0,16.0,-999,-99.99,,,-99.99,,2013-01-08 08:32:00,
2013-01-07 22:42:00,74.0,-99.9,30.05,ENE,66,6.0,13.0,-999,-99.99,,,-99.99,,2013-01-08 08:42:00,
2013-01-07 22:53:00,74.0,-99.9,30.05,ENE,78,5.0,19.0,-999,-99.99,,,-99.99,,2013-01-08 08:53:00,
2013-01-07 23:02:00,74.0,-99.9,30.05,ESE,107,5.0,16.0,-999,-99.99,,,-99.99,,2013-01-08 09:02:00,
2013-01-07 23:12:00,74.0,-99.9,30.05,NE,56,7.0,16.0,-999,-99.99,,,-99.99,,2013-01-08 09:12:00,
2013-01-07 23:22:00,74.0,-99.9,30.05,ENE,57,11.0,20.0,-999,-99.99,,,-99.99,,2013-01-08 09:22:00,
2013-01-07 23:33:00,74.0,-99.9,30.04,ESE,111,6.0,16.0,-999,-99.99,,,-99.99,,2013-01-08 09:33:00,
2013-01-07 23:42:00,74.0,-99.9,30.04,East,92,6.0,14.0,-999,-99.99,,,-99.99,,2013-01-08 09:42:00,
2013-01-07 23:53:00,74.0,-99.9,30.03,NE,52,9.0,16.0,-999,-99.99,,,-99.99,,2013-01-08 09:53:00,